createdAt,value
2017-10-07T00:02:05.749Z,5.20
2017-10-07T00:04:32.465Z,3.90
2017-10-07T00:06:59.240Z,3.30
2017-10-07T00:09:25.943Z,3.50
2017-10-07T00:11:52.594Z,3.37
2017-10-07T00:14:19.452Z,3.77
2017-10-07T00:16:46.572Z,3.57
2017-10-07T00:19:13.856Z,3.40
2017-10-07T00:21:40.440Z,3.87
2017-10-07T00:24:07.135Z,3.40
2017-10-07T00:26:33.801Z,3.43
2017-10-07T00:29:00.475Z,3.83
2017-10-07T00:31:27.260Z,3.50
2017-10-07T00:33:53.906Z,4.33
2017-10-07T00:36:20.720Z,3.87
2017-10-07T00:38:48.250Z,2.90
2017-10-07T00:41:15.245Z,2.17
2017-10-07T00:43:41.866Z,2.80
2017-10-07T00:46:08.630Z,3.33
2017-10-07T00:48:35.314Z,3.77
2017-10-07T00:51:02.146Z,3.40
2017-10-07T00:53:28.725Z,4.00
2017-10-07T00:55:55.380Z,3.73
2017-10-07T00:58:22.359Z,3.30
2017-10-07T01:00:49.764Z,3.37
2017-10-07T01:03:16.505Z,3.90
2017-10-07T01:05:43.245Z,3.30
2017-10-07T01:08:09.919Z,3.43
2017-10-07T01:10:36.726Z,2.93
2017-10-07T01:13:04.247Z,3.23
2017-10-07T01:15:30.804Z,3.73
2017-10-07T01:17:58.544Z,3.70
2017-10-07T01:20:25.742Z,3.40
2017-10-07T01:22:53.252Z,4.07
2017-10-07T01:25:20.031Z,3.63
2017-10-07T01:27:46.735Z,3.50
2017-10-07T01:30:14.129Z,3.60
2017-10-07T01:32:40.663Z,3.80
2017-10-07T01:35:07.568Z,4.43
2017-10-07T01:37:34.366Z,4.50
2017-10-07T01:40:01.076Z,4.10
2017-10-07T01:42:27.973Z,4.53
2017-10-07T01:44:54.586Z,3.77
2017-10-07T01:47:21.184Z,3.27
2017-10-07T01:49:47.998Z,3.90
2017-10-07T01:52:14.824Z,4.53
2017-10-07T01:54:41.578Z,3.20
2017-10-07T01:57:08.159Z,3.27
2017-10-07T01:59:35.543Z,3.40
2017-10-07T02:02:02.092Z,3.37
2017-10-07T02:04:28.767Z,3.93
2017-10-07T02:06:55.531Z,3.83
2017-10-07T02:09:22.182Z,3.10
2017-10-07T02:11:49.608Z,3.50
2017-10-07T02:14:16.274Z,3.27
2017-10-07T02:16:42.885Z,4.07
2017-10-07T02:19:10.167Z,4.00
2017-10-07T02:21:36.878Z,3.60
2017-10-07T02:24:03.590Z,6.23
2017-10-07T02:26:30.172Z,3.80
2017-10-07T02:28:56.741Z,3.93
2017-10-07T02:31:24.055Z,4.17
2017-10-07T02:33:50.785Z,3.20
2017-10-07T02:36:17.563Z,3.20
2017-10-07T02:38:44.313Z,3.20
2017-10-07T02:41:11.181Z,3.53
2017-10-07T02:43:37.885Z,2.57
2017-10-07T02:46:04.714Z,2.60
2017-10-07T02:48:31.624Z,2.20
2017-10-07T02:50:58.913Z,1.90
2017-10-07T02:53:25.570Z,3.37
2017-10-07T02:55:52.365Z,3.00
2017-10-07T02:58:18.907Z,3.23
2017-10-07T03:00:45.417Z,2.63
2017-10-07T03:03:12.188Z,2.70
2017-10-07T03:05:38.794Z,2.50
2017-10-07T03:08:05.436Z,3.67
2017-10-07T03:10:32.036Z,2.40
2017-10-07T03:12:58.655Z,2.77
2017-10-07T03:15:25.390Z,2.70
2017-10-07T03:17:52.132Z,2.60
2017-10-07T03:20:19.011Z,2.47
2017-10-07T03:22:45.620Z,2.47
2017-10-07T03:25:12.235Z,2.77
2017-10-07T03:27:38.977Z,2.90
2017-10-07T03:30:06.300Z,3.20
2017-10-07T03:32:33.049Z,2.50
2017-10-07T03:34:59.659Z,1.97
2017-10-07T03:37:26.287Z,2.50
2017-10-07T03:39:52.951Z,2.73
2017-10-07T03:42:19.715Z,2.67
2017-10-07T03:44:46.412Z,2.60
2017-10-07T03:47:13.220Z,3.20
2017-10-07T03:49:39.909Z,2.30
2017-10-07T03:52:06.720Z,2.03
2017-10-07T03:54:33.783Z,3.00
2017-10-07T03:57:00.362Z,2.07
2017-10-07T03:59:27.197Z,3.10
2017-10-07T04:01:54.684Z,2.80
2017-10-07T04:04:21.223Z,2.73
2017-10-07T04:06:48.097Z,2.00
2017-10-07T04:09:14.772Z,2.50
2017-10-07T04:11:42.520Z,2.60
2017-10-07T04:14:09.253Z,2.60
2017-10-07T04:16:36.894Z,2.10
2017-10-07T04:19:03.753Z,2.23
2017-10-07T04:21:30.407Z,2.30
2017-10-07T04:23:57.124Z,2.43
2017-10-07T04:26:23.829Z,2.73
2017-10-07T04:28:50.503Z,2.17
2017-10-07T04:31:17.401Z,2.17
2017-10-07T04:33:44.187Z,2.10
2017-10-07T04:36:10.968Z,2.00
2017-10-07T04:38:37.672Z,2.33
2017-10-07T04:41:04.413Z,2.23
2017-10-07T04:43:30.967Z,2.40
2017-10-07T04:45:57.627Z,2.40
2017-10-07T04:48:24.428Z,2.43
2017-10-07T04:50:51.266Z,2.37
2017-10-07T04:53:18.658Z,1.77
2017-10-07T04:55:45.238Z,2.20
2017-10-07T04:58:12.655Z,2.47
2017-10-07T05:00:39.509Z,3.63
2017-10-07T05:03:06.915Z,3.67
2017-10-07T05:05:34.379Z,2.70
2017-10-07T05:08:01.428Z,2.40
2017-10-07T05:10:28.220Z,2.20
2017-10-07T05:12:54.896Z,2.00
2017-10-07T05:15:21.549Z,3.07
2017-10-07T05:17:48.250Z,2.70
2017-10-07T05:20:15.063Z,2.40
2017-10-07T05:22:42.031Z,3.10
2017-10-07T05:25:08.563Z,3.27
2017-10-07T05:27:35.181Z,2.10
2017-10-07T05:30:01.995Z,2.27
2017-10-07T05:32:28.587Z,2.40
2017-10-07T05:34:55.156Z,2.47
2017-10-07T05:37:22.644Z,2.27
2017-10-07T05:39:49.483Z,2.37
2017-10-07T05:42:15.975Z,2.13
2017-10-07T05:44:42.713Z,2.50
2017-10-07T05:47:09.514Z,1.73
2017-10-07T05:49:36.005Z,2.10
2017-10-07T05:52:02.721Z,2.27
2017-10-07T05:54:29.383Z,2.57
2017-10-07T05:56:57.125Z,1.87
2017-10-07T05:59:23.842Z,2.00
2017-10-07T06:01:50.611Z,1.47
2017-10-07T06:04:17.275Z,1.90
2017-10-07T06:06:44.098Z,2.20
2017-10-07T06:09:10.819Z,1.60
2017-10-07T06:11:37.564Z,1.53
2017-10-07T06:14:04.219Z,1.93
2017-10-07T06:16:30.821Z,1.80
2017-10-07T06:18:57.395Z,1.57
2017-10-07T06:21:24.007Z,1.50
2017-10-07T06:23:51.811Z,1.87
2017-10-07T06:26:19.298Z,1.90
2017-10-07T06:28:46.780Z,1.93
2017-10-07T06:31:13.536Z,2.23
2017-10-07T06:33:40.471Z,1.80
2017-10-07T06:36:07.963Z,1.83
2017-10-07T06:38:34.663Z,1.90
2017-10-07T06:41:01.410Z,1.90
2017-10-07T06:43:28.570Z,2.47
2017-10-07T06:45:55.255Z,1.70
2017-10-07T06:48:22.030Z,1.97
2017-10-07T06:50:48.593Z,1.90
2017-10-07T06:53:15.371Z,1.63
2017-10-07T06:55:41.982Z,1.60
2017-10-07T06:58:08.686Z,1.90
2017-10-07T07:00:36.159Z,1.73
2017-10-07T07:03:03.520Z,2.40
2017-10-07T07:05:30.972Z,2.07
2017-10-07T07:07:57.704Z,2.20
2017-10-07T07:10:24.456Z,2.10
2017-10-07T07:12:51.245Z,1.70
2017-10-07T07:15:17.863Z,1.50
2017-10-07T07:17:45.281Z,1.90
2017-10-07T07:20:12.176Z,1.90
2017-10-07T07:22:38.849Z,2.07
2017-10-07T07:25:05.603Z,2.03
2017-10-07T07:27:32.450Z,2.00
2017-10-07T07:30:00.006Z,2.40
2017-10-07T07:32:26.665Z,2.17
2017-10-07T07:34:53.322Z,1.70
2017-10-07T07:37:19.990Z,2.33
2017-10-07T07:39:46.655Z,2.00
2017-10-07T07:42:13.435Z,2.13
2017-10-07T07:44:41.009Z,2.00
2017-10-07T07:47:07.652Z,2.70
2017-10-07T07:49:34.467Z,2.17
2017-10-07T07:52:01.406Z,2.00
2017-10-07T07:54:28.456Z,1.90
2017-10-07T07:56:55.482Z,2.13
2017-10-07T07:59:22.353Z,2.00
2017-10-07T08:01:49.107Z,2.80
2017-10-07T08:04:15.811Z,2.50
2017-10-07T08:06:42.632Z,1.97
2017-10-07T08:09:10.178Z,1.57
2017-10-07T08:11:36.842Z,1.80
2017-10-07T08:14:03.677Z,2.10
2017-10-07T08:16:30.230Z,3.43
2017-10-07T08:18:56.871Z,2.20
2017-10-07T08:21:23.629Z,2.33
2017-10-07T08:23:51.152Z,2.73
2017-10-07T08:26:18.977Z,3.03
2017-10-07T08:28:46.349Z,3.50
2017-10-07T08:31:13.201Z,3.10
2017-10-07T08:33:39.956Z,3.20
2017-10-07T08:36:06.675Z,2.60
2017-10-07T08:38:33.507Z,2.70
2017-10-07T08:41:01.293Z,3.27
2017-10-07T08:43:27.925Z,2.57
2017-10-07T08:45:55.651Z,2.63
2017-10-07T08:48:22.411Z,2.93
2017-10-07T08:50:49.110Z,2.70
2017-10-07T08:53:15.932Z,2.80
2017-10-07T08:55:42.802Z,3.00
2017-10-07T08:58:10.157Z,2.80
2017-10-07T09:00:36.723Z,3.20
2017-10-07T09:03:04.670Z,3.87
2017-10-07T09:05:31.353Z,3.30
2017-10-07T09:07:58.200Z,3.43
2017-10-07T09:10:29.896Z,3.00
2017-10-07T09:12:57.557Z,3.00
2017-10-07T09:15:24.196Z,3.93
2017-10-07T09:17:50.926Z,2.87
2017-10-07T09:20:17.688Z,3.90
2017-10-07T09:22:44.242Z,4.67
2017-10-07T09:25:10.948Z,4.27
2017-10-07T09:27:38.390Z,4.47
2017-10-07T09:30:05.042Z,5.20
2017-10-07T09:32:32.701Z,4.77
2017-10-07T09:34:59.462Z,5.20
2017-10-07T09:37:26.226Z,5.37
2017-10-07T09:39:53.099Z,5.40
2017-10-07T09:42:19.825Z,4.67
2017-10-07T09:44:47.326Z,4.40
2017-10-07T09:47:14.023Z,5.20
2017-10-07T09:49:40.660Z,5.20
2017-10-07T09:52:07.374Z,4.70
2017-10-07T09:54:33.972Z,4.30
2017-10-07T09:57:01.502Z,4.00
2017-10-07T09:59:28.346Z,3.83
2017-10-07T10:01:55.834Z,4.17
2017-10-07T10:04:22.528Z,5.17
2017-10-07T10:06:50.006Z,5.20
2017-10-07T10:09:17.020Z,4.20
2017-10-07T10:11:44.490Z,4.37
2017-10-07T10:14:11.210Z,3.60
2017-10-07T10:16:38.262Z,3.73
2017-10-07T10:19:05.482Z,4.10
2017-10-07T10:21:33.057Z,5.60
2017-10-07T10:23:59.731Z,3.70
2017-10-07T10:26:26.525Z,3.77
2017-10-07T10:28:53.255Z,3.50
2017-10-07T10:31:20.252Z,4.40
2017-10-07T10:33:46.879Z,3.53
2017-10-07T10:36:13.537Z,4.00
2017-10-07T10:38:40.239Z,4.70
2017-10-07T10:41:07.934Z,4.50
2017-10-07T10:43:34.761Z,4.47
2017-10-07T10:46:02.127Z,4.20
2017-10-07T10:48:29.095Z,4.13
2017-10-07T10:50:55.794Z,4.30
2017-10-07T10:53:22.594Z,3.10
2017-10-07T10:55:49.288Z,3.57
2017-10-07T10:58:16.441Z,3.80
2017-10-07T11:00:43.069Z,4.80
2017-10-07T11:03:09.782Z,2.90
2017-10-07T11:05:36.418Z,2.80
2017-10-07T11:08:04.086Z,4.53
2017-10-07T11:10:30.754Z,3.90
2017-10-07T11:12:57.391Z,3.40
2017-10-07T11:15:24.002Z,2.50
2017-10-07T11:17:51.455Z,3.47
2017-10-07T11:20:18.303Z,2.70
2017-10-07T11:22:45.065Z,3.17
2017-10-07T11:25:11.844Z,3.80
2017-10-07T11:27:39.330Z,3.17
2017-10-07T11:30:06.306Z,2.97
2017-10-07T11:32:32.991Z,3.27
2017-10-07T11:34:59.752Z,3.17
2017-10-07T11:37:26.594Z,4.70
2017-10-07T11:39:53.467Z,4.70
2017-10-07T11:42:20.382Z,4.23
2017-10-07T11:44:47.654Z,3.80
2017-10-07T11:47:14.761Z,4.30
2017-10-07T11:49:41.452Z,6.43
2017-10-07T11:52:08.409Z,4.07
2017-10-07T11:54:35.148Z,4.70
2017-10-07T11:57:01.867Z,4.40
2017-10-07T11:59:30.654Z,5.33
2017-10-07T12:01:57.277Z,5.30
2017-10-07T12:04:23.920Z,6.30
2017-10-07T12:06:50.715Z,6.17
2017-10-07T12:09:17.266Z,5.63
2017-10-07T12:11:43.932Z,5.60
2017-10-07T12:14:10.836Z,6.57
2017-10-07T12:16:38.753Z,5.57
2017-10-07T12:19:05.601Z,6.30
2017-10-07T12:21:32.384Z,6.00
2017-10-07T12:23:59.217Z,8.77
2017-10-07T12:26:26.526Z,6.70
2017-10-07T12:28:54.035Z,7.60
2017-10-07T12:31:20.746Z,7.30
2017-10-07T12:33:47.412Z,6.63
2017-10-07T12:36:15.145Z,6.60
2017-10-07T12:38:41.979Z,6.27
2017-10-07T12:41:09.472Z,6.30
2017-10-07T12:43:36.348Z,5.80
2017-10-07T12:46:03.085Z,6.50
2017-10-07T12:48:29.862Z,5.87
2017-10-07T12:50:56.508Z,6.53
2017-10-07T12:53:23.816Z,6.97
2017-10-07T12:55:50.512Z,6.17
2017-10-07T12:58:20.141Z,7.40
2017-10-07T13:00:46.729Z,7.43
2017-10-07T13:03:13.769Z,6.00
2017-10-07T13:05:40.691Z,7.37
2017-10-07T13:08:07.430Z,7.10
2017-10-07T13:10:34.983Z,7.20
2017-10-07T13:13:02.389Z,7.50
2017-10-07T13:15:31.051Z,8.40
2017-10-07T13:17:59.060Z,8.87
2017-10-07T13:20:25.606Z,7.53
2017-10-07T13:22:52.432Z,8.73
2017-10-07T13:25:19.240Z,8.10
2017-10-07T13:27:46.225Z,8.70
2017-10-07T13:30:12.760Z,8.20
2017-10-07T13:32:39.663Z,9.10
2017-10-07T13:35:06.441Z,10.50
2017-10-07T13:37:33.051Z,7.00
2017-10-07T13:39:59.657Z,8.47
2017-10-07T13:42:27.031Z,8.80
2017-10-07T13:44:53.881Z,8.10
2017-10-07T13:47:20.711Z,7.80
2017-10-07T13:49:47.466Z,8.60
2017-10-07T13:52:14.480Z,7.63
2017-10-07T13:54:41.678Z,7.27
2017-10-07T13:57:08.434Z,7.70
2017-10-07T13:59:35.792Z,7.80
2017-10-07T14:02:02.669Z,7.67
2017-10-07T14:04:30.452Z,7.57
2017-10-07T14:06:57.065Z,6.63
2017-10-07T14:09:23.844Z,7.37
2017-10-07T14:11:50.747Z,6.33
2017-10-07T14:14:17.526Z,7.53
2017-10-07T14:16:44.104Z,7.70
2017-10-07T14:19:11.519Z,8.37
2017-10-07T14:21:38.206Z,5.17
2017-10-07T14:24:04.888Z,6.30
2017-10-07T14:26:32.095Z,6.30
2017-10-07T14:28:58.866Z,5.23
2017-10-07T14:31:25.833Z,3.93
2017-10-07T14:33:53.511Z,5.67
2017-10-07T14:36:20.263Z,6.10
2017-10-07T14:38:46.903Z,5.00
2017-10-07T14:41:13.748Z,4.13
2017-10-07T14:43:40.596Z,5.17
2017-10-07T14:46:07.366Z,5.83
2017-10-07T14:48:35.117Z,5.83
2017-10-07T14:51:02.583Z,6.57
2017-10-07T14:53:29.877Z,5.47
2017-10-07T14:55:56.843Z,5.73
2017-10-07T14:58:23.683Z,5.53
2017-10-07T15:00:53.842Z,5.70
2017-10-07T15:03:21.741Z,6.27
2017-10-07T15:05:49.531Z,5.03
2017-10-07T15:08:16.436Z,5.40
2017-10-07T15:10:45.651Z,5.27
2017-10-07T15:13:12.210Z,5.60
2017-10-07T15:15:38.786Z,5.77
2017-10-07T15:18:05.410Z,4.37
2017-10-07T15:20:32.008Z,4.67
2017-10-07T15:22:58.689Z,4.23
2017-10-07T15:25:25.291Z,3.73
2017-10-07T15:27:51.810Z,3.97
2017-10-07T15:30:18.447Z,3.83
2017-10-07T15:32:45.129Z,3.07
2017-10-07T15:35:11.785Z,3.40
2017-10-07T15:37:38.524Z,3.10
2017-10-07T15:40:07.155Z,3.67
2017-10-07T15:42:34.769Z,2.83
2017-10-07T15:45:01.511Z,2.80
2017-10-07T15:47:28.255Z,2.63
2017-10-07T15:49:54.879Z,3.07
2017-10-07T15:52:21.752Z,2.97
2017-10-07T15:54:48.569Z,3.00
2017-10-07T15:57:16.090Z,3.57
2017-10-07T15:59:42.941Z,3.30
2017-10-07T16:02:09.877Z,2.70
2017-10-07T16:04:36.785Z,3.00
2017-10-07T16:07:04.636Z,2.93
2017-10-07T16:09:31.276Z,2.50
2017-10-07T16:11:57.958Z,2.50
2017-10-07T16:14:24.572Z,3.20
2017-10-07T16:16:51.396Z,3.70
2017-10-07T16:19:18.231Z,2.77
2017-10-07T16:21:45.194Z,3.03
2017-10-07T16:24:12.124Z,2.83
2017-10-07T16:26:43.348Z,3.03
2017-10-07T16:29:09.968Z,2.57
2017-10-07T16:31:37.312Z,2.80
2017-10-07T16:34:03.856Z,2.90
2017-10-07T16:36:30.451Z,4.30
2017-10-07T16:38:57.134Z,3.77
2017-10-07T16:41:23.849Z,4.10
2017-10-07T16:43:50.591Z,3.03
2017-10-07T16:46:17.354Z,4.20
2017-10-07T16:48:44.004Z,3.60
2017-10-07T16:51:10.792Z,4.37
2017-10-07T16:53:37.538Z,3.53
2017-10-07T16:56:04.410Z,3.70
2017-10-07T16:58:31.372Z,5.07
2017-10-07T17:00:59.977Z,4.17
2017-10-07T17:03:29.202Z,4.40
2017-10-07T17:05:57.090Z,4.57
2017-10-07T17:08:23.676Z,4.47
2017-10-07T17:10:50.321Z,4.50
2017-10-07T17:13:16.931Z,4.97
2017-10-07T17:15:43.881Z,5.60
2017-10-07T17:18:10.583Z,5.20
2017-10-07T17:20:38.061Z,4.80
2017-10-07T17:23:04.780Z,4.90
2017-10-07T17:25:31.947Z,5.37
2017-10-07T17:27:58.679Z,5.40
2017-10-07T17:30:25.412Z,4.87
2017-10-07T17:32:51.915Z,4.93
2017-10-07T17:35:18.613Z,5.40
2017-10-07T17:37:45.723Z,5.13
2017-10-07T17:40:12.568Z,4.40
2017-10-07T17:42:39.324Z,5.00
2017-10-07T17:45:05.967Z,4.93
2017-10-07T17:47:32.660Z,5.07
2017-10-07T17:49:59.469Z,5.00
2017-10-07T17:52:27.078Z,4.40
2017-10-07T17:54:53.846Z,5.17
2017-10-07T17:57:20.556Z,4.43
2017-10-07T17:59:47.199Z,3.93
2017-10-07T18:02:14.090Z,4.30
2017-10-07T18:04:40.796Z,3.90
2017-10-07T18:07:07.397Z,4.57
2017-10-07T18:09:34.205Z,5.47
2017-10-07T18:12:00.975Z,5.60
2017-10-07T18:14:27.690Z,5.50
2017-10-07T18:16:54.764Z,4.60
2017-10-07T18:19:22.630Z,5.47
2017-10-07T18:21:49.434Z,5.67
2017-10-07T18:24:16.181Z,5.40
2017-10-07T18:26:43.567Z,6.77
2017-10-07T18:29:11.559Z,5.93
2017-10-07T18:31:38.377Z,7.03
2017-10-07T18:34:05.763Z,6.03
2017-10-07T18:36:32.471Z,7.53
2017-10-07T18:38:59.900Z,4.40
2017-10-07T18:41:26.746Z,6.13
2017-10-07T18:43:53.585Z,5.67
2017-10-07T18:46:20.318Z,6.63
2017-10-07T18:48:47.032Z,5.80
2017-10-07T18:51:13.611Z,5.70
2017-10-07T18:53:40.325Z,5.80
2017-10-07T18:56:06.854Z,6.73
2017-10-07T18:58:33.631Z,6.23
2017-10-07T19:01:00.128Z,5.60
2017-10-07T19:03:26.700Z,4.70
2017-10-07T19:05:54.028Z,4.57
2017-10-07T19:08:20.616Z,6.07
2017-10-07T19:10:48.448Z,5.67
2017-10-07T19:13:15.520Z,6.77
2017-10-07T19:15:49.600Z,6.40
2017-10-07T19:18:16.398Z,5.30
2017-10-07T19:20:42.998Z,4.77
2017-10-07T19:23:09.555Z,4.83
2017-10-07T19:25:36.215Z,5.70
2017-10-07T19:28:02.930Z,5.37
2017-10-07T19:30:29.484Z,6.10
2017-10-07T19:32:56.154Z,5.87
2017-10-07T19:35:23.558Z,6.23
2017-10-07T19:37:50.317Z,5.07
2017-10-07T19:40:17.296Z,5.90
2017-10-07T19:42:43.969Z,8.20
2017-10-07T19:45:10.740Z,7.70
2017-10-07T19:47:37.308Z,6.50
2017-10-07T19:50:03.967Z,6.97
2017-10-07T19:52:30.629Z,7.20
2017-10-07T19:54:57.336Z,6.83
2017-10-07T19:57:24.032Z,7.13
2017-10-07T19:59:51.387Z,7.77
2017-10-07T20:02:18.282Z,6.60
2017-10-07T20:04:44.764Z,7.40
2017-10-07T20:07:11.400Z,7.90
2017-10-07T20:09:37.935Z,6.40
2017-10-07T20:12:04.704Z,5.00
2017-10-07T20:14:31.470Z,6.27
2017-10-07T20:16:58.351Z,6.30
2017-10-07T20:19:25.549Z,5.90
2017-10-07T20:21:52.490Z,4.97
2017-10-07T20:24:19.226Z,5.20
2017-10-07T20:26:45.761Z,5.23
2017-10-07T20:29:13.324Z,5.07
2017-10-07T20:31:39.890Z,5.43
2017-10-07T20:34:06.402Z,5.07
2017-10-07T20:36:33.869Z,4.80
2017-10-07T20:39:00.912Z,4.03
2017-10-07T20:41:27.766Z,4.70
2017-10-07T20:43:54.443Z,4.40
2017-10-07T20:46:21.151Z,4.43
2017-10-07T20:48:47.824Z,4.17
2017-10-07T20:51:14.455Z,4.60
2017-10-07T20:53:41.055Z,4.10
2017-10-07T20:56:07.775Z,5.90
2017-10-07T20:58:34.306Z,5.20
2017-10-07T21:01:01.108Z,5.37
2017-10-07T21:03:27.844Z,6.47
2017-10-07T21:05:54.447Z,5.20
2017-10-07T21:08:21.371Z,4.50
2017-10-07T21:10:48.197Z,4.20
2017-10-07T21:13:15.030Z,4.70
2017-10-07T21:15:41.708Z,4.93
2017-10-07T21:18:08.293Z,3.77
2017-10-07T21:20:36.115Z,4.40
2017-10-07T21:23:02.914Z,4.47
2017-10-07T21:25:29.608Z,3.27
2017-10-07T21:27:56.205Z,2.23
2017-10-07T21:30:22.680Z,2.07
2017-10-07T21:32:49.142Z,1.60
2017-10-07T21:35:15.726Z,1.20
2017-10-07T21:37:42.333Z,1.07
2017-10-07T21:40:08.898Z,1.27
2017-10-07T21:42:35.428Z,1.20
2017-10-07T21:45:02.241Z,1.13
2017-10-07T21:47:28.955Z,1.53
2017-10-07T21:49:55.516Z,1.10
2017-10-07T21:52:22.685Z,1.13
2017-10-07T21:54:49.264Z,1.90
2017-10-07T21:57:15.894Z,1.67
2017-10-07T21:59:42.547Z,1.60
2017-10-07T22:02:09.904Z,1.90
2017-10-07T22:04:36.441Z,1.70
2017-10-07T22:07:03.235Z,2.90
2017-10-07T22:09:29.849Z,2.50
2017-10-07T22:11:56.339Z,3.73
2017-10-07T22:14:23.195Z,4.27
2017-10-07T22:16:49.854Z,4.20
2017-10-07T22:19:16.916Z,4.00
2017-10-07T22:21:43.775Z,3.77
2017-10-07T22:24:10.284Z,3.27
2017-10-07T22:26:37.027Z,2.80
2017-10-07T22:29:03.770Z,2.27
2017-10-07T22:31:30.509Z,2.57
2017-10-07T22:33:57.068Z,1.90
2017-10-07T22:36:23.793Z,2.40
2017-10-07T22:38:50.321Z,2.47
2017-10-07T22:41:16.950Z,2.37
2017-10-07T22:43:44.024Z,2.80
2017-10-07T22:46:10.642Z,2.10
2017-10-07T22:48:37.185Z,3.93
2017-10-07T22:51:04.276Z,2.60
2017-10-07T22:53:30.852Z,3.80
2017-10-07T22:55:57.520Z,5.30
2017-10-07T22:58:24.058Z,7.07
2017-10-07T23:00:50.866Z,6.50
2017-10-07T23:03:18.130Z,3.93
2017-10-07T23:05:44.763Z,4.07
2017-10-07T23:08:11.508Z,2.90
2017-10-07T23:10:38.463Z,2.47
2017-10-07T23:13:05.076Z,2.70
2017-10-07T23:15:32.579Z,2.27
2017-10-07T23:17:59.191Z,2.10
2017-10-07T23:20:26.429Z,1.90
2017-10-07T23:22:53.062Z,1.40
2017-10-07T23:25:19.562Z,1.37
2017-10-07T23:27:46.105Z,1.57
2017-10-07T23:30:12.726Z,2.17
2017-10-07T23:32:39.424Z,1.50
2017-10-07T23:35:06.767Z,1.50
2017-10-07T23:37:33.271Z,2.23
2017-10-07T23:39:59.913Z,1.80
2017-10-07T23:42:26.637Z,2.60
2017-10-07T23:44:53.755Z,2.83
2017-10-07T23:47:20.316Z,2.37
2017-10-07T23:49:47.715Z,2.27
2017-10-07T23:52:15.268Z,2.30
2017-10-07T23:54:41.938Z,2.20
2017-10-07T23:57:08.544Z,2.30
2017-10-07T23:59:35.256Z,2.20
